Time;durP1;ratioP1;P1;durP2;ratioP2;P2;SDS_P1;SDS_P2;PMS_P1;PMS_P2;Temp;Humidity;BMP_temperature;BMP_pressure;BME280_temperature;BME280_humidity;BME280_pressure;Samples;Min_cycle;Max_cycle;Signal;HPM_P1;HPM_P2
2021/08/12 00:02:04;;;;;;;3.92;3.60;;;23.00;57.80;;;;;;5060399;28;20037;-84
2021/08/12 00:04:31;;;;;;;4.82;3.45;;;23.00;57.80;;;;;;5020131;28;20041;-85
2021/08/12 00:06:58;;;;;;;3.65;3.42;;;22.90;57.90;;;;;;5036240;28;20025;-89
2021/08/12 00:09:24;;;;;;;3.35;3.25;;;22.90;57.90;;;;;;5033712;28;20028;-84
2021/08/12 00:11:50;;;;;;;3.33;3.22;;;22.90;58.00;;;;;;5032734;28;20049;-85
2021/08/12 00:14:16;;;;;;;3.42;3.22;;;22.90;58.10;;;;;;5036763;28;20470;-85
2021/08/12 00:16:42;;;;;;;2.65;2.55;;;22.90;58.10;;;;;;5034073;28;20045;-84
2021/08/12 00:19:11;;;;;;;3.35;3.15;;;22.80;58.20;;;;;;5035980;28;20044;-84
2021/08/12 00:21:39;;;;;;;3.00;2.90;;;22.80;58.20;;;;;;5034888;28;20132;-85
2021/08/12 00:24:05;;;;;;;3.63;3.33;;;22.80;58.30;;;;;;5030805;28;20014;-84
2021/08/12 00:26:31;;;;;;;3.03;2.92;;;22.70;58.30;;;;;;5036067;28;20041;-84
2021/08/12 00:28:57;;;;;;;3.28;3.08;;;22.70;58.40;;;;;;5034622;28;20029;-84
2021/08/12 00:31:23;;;;;;;3.17;3.08;;;22.60;58.40;;;;;;5035312;28;20056;-85
2021/08/12 00:33:49;;;;;;;3.67;3.38;;;22.60;58.50;;;;;;5035570;28;20406;-84
2021/08/12 00:36:15;;;;;;;3.53;3.33;;;22.60;58.60;;;;;;5033101;28;20034;-85
2021/08/12 00:38:42;;;;;;;3.30;3.10;;;22.60;58.60;;;;;;5034607;28;20463;-84
2021/08/12 00:41:10;;;;;;;3.50;3.30;;;22.50;58.60;;;;;;5036312;28;20041;-85
2021/08/12 00:43:36;;;;;;;3.42;3.20;;;22.50;58.70;;;;;;5032978;28;20030;-85
2021/08/12 00:46:02;;;;;;;2.83;2.72;;;22.50;58.70;;;;;;5035110;28;20036;-85
2021/08/12 00:48:28;;;;;;;3.17;3.08;;;22.50;58.80;;;;;;5033594;28;20032;-84
2021/08/12 00:50:54;;;;;;;3.10;2.90;;;22.50;58.80;;;;;;5031664;28;20691;-85
2021/08/12 00:53:21;;;;;;;3.60;3.40;;;22.50;58.90;;;;;;5037400;28;20026;-85
2021/08/12 00:55:47;;;;;;;2.92;2.83;;;22.40;58.80;;;;;;5033550;28;20052;-85
2021/08/12 00:58:16;;;;;;;3.33;3.13;;;22.30;58.90;;;;;;5035351;28;20029;-85
2021/08/12 01:00:43;;;;;;;3.22;3.03;;;22.30;59.00;;;;;;5034913;28;20481;-85
2021/08/12 01:03:09;;;;;;;2.97;2.88;;;22.30;59.00;;;;;;5030573;28;20033;-84
2021/08/12 01:05:42;;;;;;;5.15;3.33;;;22.30;59.10;;;;;;5034851;28;20064;-85
2021/08/12 01:08:19;;;;;;;3.63;3.33;;;22.20;59.10;;;;;;5035361;28;20021;-85
2021/08/12 01:11:18;;;;;;;3.25;3.05;;;22.20;59.10;;;;;;5017839;28;20053;-84
2021/08/12 01:13:47;;;;;;;3.42;3.22;;;22.20;59.20;;;;;;5034093;28;20033;-85
2021/08/12 01:16:13;;;;;;;10.18;3.20;;;22.10;59.10;;;;;;5034650;28;20045;-83
2021/08/12 01:18:52;;;;;;;3.40;3.20;;;22.10;59.20;;;;;;5033925;28;20025;-84
2021/08/12 01:21:18;;;;;;;3.25;3.05;;;22.10;59.30;;;;;;5031483;28;20030;-84
2021/08/12 01:23:45;;;;;;;4.15;3.75;;;22.10;59.30;;;;;;5032772;28;20036;-84
2021/08/12 01:26:12;;;;;;;2.88;2.72;;;22.00;59.40;;;;;;5049775;28;20410;-84
2021/08/12 01:28:44;;;;;;;2.85;2.75;;;22.00;59.40;;;;;;5017150;28;20022;-85
2021/08/12 01:31:40;;;;;;;2.97;2.88;;;22.00;59.50;;;;;;5033250;28;20048;-84
2021/08/12 01:34:15;;;;;;;2.65;2.55;;;22.00;59.60;;;;;;5028504;28;20060;-84
2021/08/12 01:36:41;;;;;;;3.03;2.85;;;22.00;59.60;;;;;;5034863;28;20029;-85
2021/08/12 01:39:08;;;;;;;2.95;2.78;;;21.90;59.60;;;;;;4996644;28;20048;-85
2021/08/12 01:41:35;;;;;;;2.75;2.65;;;21.90;59.60;;;;;;5017860;28;20471;-85
2021/08/12 01:44:01;;;;;;;3.17;2.97;;;21.90;59.70;;;;;;5048117;28;20048;-85
2021/08/12 01:46:28;;;;;;;3.33;3.03;;;21.90;59.80;;;;;;5032332;28;20104;-84
2021/08/12 01:48:55;;;;;;;2.45;2.35;;;21.80;59.80;;;;;;5033429;28;20021;-83
2021/08/12 01:51:25;;;;;;;3.15;2.95;;;21.80;59.90;;;;;;5032497;28;20072;-86
2021/08/12 01:53:51;;;;;;;3.13;3.03;;;21.80;59.90;;;;;;5030173;28;20509;-85
2021/08/12 01:56:18;;;;;;;2.85;2.75;;;21.80;60.00;;;;;;5035563;28;20036;-85
2021/08/12 01:58:44;;;;;;;2.90;2.80;;;21.80;60.00;;;;;;5017264;28;20021;-86
2021/08/12 02:01:10;;;;;;;2.80;2.70;;;21.70;60.10;;;;;;5025883;28;20398;-84
2021/08/12 02:03:36;;;;;;;2.90;2.80;;;21.70;60.10;;;;;;5008203;28;20045;-84
2021/08/12 02:06:02;;;;;;;3.08;2.88;;;21.70;60.20;;;;;;5022688;28;20533;-84
2021/08/12 02:08:30;;;;;;;2.80;2.70;;;21.70;60.30;;;;;;5024957;28;20029;-84
2021/08/12 02:10:56;;;;;;;3.55;3.35;;;21.70;60.40;;;;;;5028246;28;20049;-83
2021/08/12 02:13:24;;;;;;;2.97;2.80;;;21.70;60.40;;;;;;5026627;28;20026;-85
2021/08/12 02:15:51;;;;;;;3.53;3.20;;;21.70;60.50;;;;;;5026247;28;20045;-85
2021/08/12 02:18:17;;;;;;;2.88;2.70;;;21.70;60.60;;;;;;5026839;28;20041;-84
2021/08/12 02:20:47;;;;;;;2.60;2.50;;;21.60;60.60;;;;;;5029267;28;20435;-86
2021/08/12 02:23:31;;;;;;;2.65;2.55;;;21.60;60.70;;;;;;5028450;28;20029;-86
2021/08/12 02:26:09;;;;;;;2.67;2.58;;;21.60;60.80;;;;;;5009019;28;20510;-83
2021/08/12 02:28:35;;;;;;;2.50;2.40;;;21.60;60.80;;;;;;5022422;28;20044;-85
2021/08/12 02:31:02;;;;;;;2.97;2.80;;;21.60;60.80;;;;;;5024883;28;20041;-84
2021/08/12 02:33:30;;;;;;;2.80;2.60;;;21.50;60.80;;;;;;5025466;28;20044;-84
2021/08/12 02:35:56;;;;;;;2.63;2.53;;;21.50;60.90;;;;;;5026155;28;20034;-85
2021/08/12 02:38:22;;;;;;;2.40;2.30;;;21.50;61.00;;;;;;5027641;28;20033;-85
2021/08/12 02:40:48;;;;;;;4.15;2.83;;;21.40;61.00;;;;;;5017983;28;20044;-83
2021/08/12 02:43:14;;;;;;;2.83;2.70;;;21.40;61.10;;;;;;5034250;28;20033;-84
2021/08/12 02:45:40;;;;;;;3.35;3.05;;;21.40;61.10;;;;;;5029153;28;20397;-85
2021/08/12 02:48:09;;;;;;;2.53;2.42;;;21.40;61.20;;;;;;5016423;28;20030;-87
2021/08/12 02:50:38;;;;;;;10.52;3.15;;;21.40;61.30;;;;;;5020308;28;20036;-83
2021/08/12 02:53:05;;;;;;;2.80;2.60;;;21.40;61.40;;;;;;5037611;28;20037;-85
2021/08/12 02:55:32;;;;;;;2.75;2.65;;;21.30;61.40;;;;;;5037779;28;20034;-84
2021/08/12 02:57:58;;;;;;;3.38;3.10;;;21.30;61.50;;;;;;5018225;28;20417;-84
2021/08/12 03:00:24;;;;;;;3.13;2.90;;;21.30;61.60;;;;;;5047228;28;20045;-84
2021/08/12 03:02:50;;;;;;;2.63;2.53;;;21.20;61.70;;;;;;5033416;28;20038;-83
2021/08/12 03:05:18;;;;;;;2.58;2.47;;;21.20;61.70;;;;;;5037777;28;20356;-84
2021/08/12 03:07:44;;;;;;;2.85;2.65;;;21.20;61.80;;;;;;5020270;28;20029;-85
2021/08/12 03:10:12;;;;;;;3.15;2.95;;;21.10;61.90;;;;;;5019626;28;20485;-83
2021/08/12 03:12:39;;;;;;;3.58;2.95;;;21.10;62.00;;;;;;5036127;28;20449;-85
2021/08/12 03:15:06;;;;;;;2.75;2.65;;;21.10;62.10;;;;;;5030108;28;20029;-84
2021/08/12 03:17:32;;;;;;;3.78;3.28;;;21.10;62.20;;;;;;5037215;28;20036;-85
2021/08/12 03:19:58;;;;;;;3.15;2.95;;;21.10;62.20;;;;;;5034603;28;20482;-84
2021/08/12 03:22:25;;;;;;;3.15;2.95;;;21.10;62.30;;;;;;5034383;28;20037;-85
2021/08/12 03:24:51;;;;;;;2.92;2.80;;;21.00;62.30;;;;;;5036115;28;20032;-84
2021/08/12 03:27:17;;;;;;;3.05;2.85;;;21.00;62.40;;;;;;5033663;28;20041;-85
2021/08/12 03:29:46;;;;;;;3.10;2.90;;;21.00;62.50;;;;;;5018121;28;20025;-84
2021/08/12 03:32:12;;;;;;;2.92;2.83;;;21.00;62.50;;;;;;5036118;28;20410;-84
2021/08/12 03:34:39;;;;;;;2.97;2.88;;;21.00;62.50;;;;;;5034142;28;20388;-84
2021/08/12 03:37:05;;;;;;;2.67;2.58;;;20.90;62.50;;;;;;5035588;28;20025;-85
2021/08/12 03:39:31;;;;;;;2.92;2.83;;;21.00;62.60;;;;;;5036590;28;20032;-84
2021/08/12 03:41:58;;;;;;;3.42;3.20;;;20.90;62.70;;;;;;5032347;28;20033;-85
2021/08/12 03:44:24;;;;;;;3.25;2.75;;;20.90;62.70;;;;;;5037521;28;20030;-84
2021/08/12 03:46:51;;;;;;;2.80;2.70;;;20.90;62.70;;;;;;5036233;28;20033;-84
2021/08/12 03:49:17;;;;;;;3.00;2.80;;;20.90;62.70;;;;;;5034952;28;20037;-85
2021/08/12 03:51:43;;;;;;;3.10;2.90;;;20.90;62.80;;;;;;5034593;28;20052;-83
2021/08/12 03:54:09;;;;;;;2.88;2.67;;;20.80;62.90;;;;;;5031597;28;20030;-84
2021/08/12 03:56:35;;;;;;;2.80;2.63;;;20.70;63.00;;;;;;5036880;28;20072;-84
2021/08/12 03:59:02;;;;;;;2.85;2.70;;;20.70;63.10;;;;;;5019038;28;20029;-84
2021/08/12 04:01:29;;;;;;;2.78;2.60;;;20.70;63.10;;;;;;5017937;28;20034;-85
2021/08/12 04:03:56;;;;;;;2.70;2.60;;;20.70;63.10;;;;;;5035974;28;20036;-83
2021/08/12 04:06:22;;;;;;;2.92;2.83;;;20.70;63.20;;;;;;5033520;28;20398;-84
2021/08/12 04:08:48;;;;;;;2.60;2.50;;;20.60;63.30;;;;;;5033023;28;20029;-84
2021/08/12 04:11:14;;;;;;;2.80;2.33;;;20.50;63.40;;;;;;5036171;28;20498;-85
2021/08/12 04:13:40;;;;;;;2.65;2.55;;;20.50;63.60;;;;;;5034960;28;20033;-84
2021/08/12 04:16:06;;;;;;;2.60;2.50;;;20.40;63.60;;;;;;5035571;28;20041;-85
2021/08/12 04:18:32;;;;;;;2.60;2.50;;;20.40;63.70;;;;;;5035253;28;20492;-84
2021/08/12 04:20:58;;;;;;;2.67;2.47;;;20.40;63.80;;;;;;5014283;28;20029;-81
2021/08/12 04:23:24;;;;;;;3.38;3.03;;;20.30;63.90;;;;;;5019855;28;20041;-83
2021/08/12 04:25:54;;;;;;;3.15;2.95;;;20.30;64.00;;;;;;5018181;28;20052;-84
2021/08/12 04:28:20;;;;;;;2.63;2.53;;;20.20;64.00;;;;;;5018247;28;20040;-85
2021/08/12 04:30:48;;;;;;;2.58;2.47;;;20.20;64.10;;;;;;5034055;28;20393;-84
2021/08/12 04:33:15;;;;;;;3.20;3.00;;;20.20;64.10;;;;;;5030845;28;20403;-82
2021/08/12 04:35:42;;;;;;;3.20;3.00;;;20.10;64.10;;;;;;5033983;28;20520;-84
2021/08/12 04:38:08;;;;;;;3.28;3.05;;;20.10;64.10;;;;;;5033522;28;20037;-84
2021/08/12 04:40:34;;;;;;;2.53;2.42;;;20.10;64.20;;;;;;5035493;28;20055;-84
2021/08/12 04:43:00;;;;;;;2.70;2.60;;;20.20;64.20;;;;;;5033064;28;20033;-84
2021/08/12 04:45:27;;;;;;;2.90;2.80;;;20.10;64.20;;;;;;5031908;28;20040;-84
2021/08/12 04:48:01;;;;;;;2.40;2.28;;;20.20;64.20;;;;;;5030037;28;20544;-85
2021/08/12 04:50:27;;;;;;;3.10;2.85;;;20.20;64.30;;;;;;5052207;28;20044;-84
2021/08/12 04:52:53;;;;;;;2.80;2.70;;;20.10;64.20;;;;;;5034157;28;20502;-84
2021/08/12 04:55:19;;;;;;;2.67;2.58;;;20.20;64.30;;;;;;5035361;28;20029;-84
2021/08/12 04:57:45;;;;;;;3.50;3.17;;;20.20;64.30;;;;;;5035176;28;20036;-85
2021/08/12 05:00:12;;;;;;;3.20;2.90;;;20.20;64.30;;;;;;5031837;28;20052;-83
2021/08/12 05:02:38;;;;;;;5.28;2.72;;;20.20;64.40;;;;;;5035284;28;20054;-84
2021/08/12 05:05:04;;;;;;;2.92;2.78;;;20.10;64.40;;;;;;5034760;28;20547;-85
2021/08/12 05:07:30;;;;;;;3.17;2.97;;;20.10;64.40;;;;;;5034931;28;20034;-84
2021/08/12 05:09:56;;;;;;;5.55;3.00;;;20.10;64.50;;;;;;5035246;28;20036;-84
2021/08/12 05:12:22;;;;;;;3.15;2.80;;;20.00;64.50;;;;;;5030934;28;20053;-84
2021/08/12 05:14:49;;;;;;;6.25;3.40;;;20.00;64.70;;;;;;5031099;28;20029;-85
2021/08/12 05:17:15;;;;;;;5.82;2.80;;;19.90;64.70;;;;;;5036145;28;20026;-84
2021/08/12 05:19:43;;;;;;;2.72;2.60;;;19.90;64.80;;;;;;5033765;28;20478;-84
2021/08/12 05:22:13;;;;;;;2.55;2.45;;;19.90;64.90;;;;;;5034446;28;20532;-84
2021/08/12 05:24:39;;;;;;;2.83;2.50;;;19.80;65.00;;;;;;5034026;28;20021;-84
2021/08/12 05:27:05;;;;;;;3.30;3.05;;;19.80;65.00;;;;;;5028071;28;20040;-85
2021/08/12 05:29:31;;;;;;;2.90;2.80;;;19.80;65.10;;;;;;5036540;28;20378;-84
2021/08/12 05:31:58;;;;;;;2.78;2.58;;;19.80;65.10;;;;;;5032891;28;20045;-85
2021/08/12 05:34:24;;;;;;;3.42;3.10;;;19.90;65.00;;;;;;5033533;28;20049;-84
2021/08/12 05:36:50;;;;;;;8.07;2.72;;;19.90;64.90;;;;;;5034934;28;20033;-82
2021/08/12 05:39:16;;;;;;;2.85;2.65;;;19.90;64.80;;;;;;5031052;28;20032;-84
2021/08/12 05:41:42;;;;;;;2.63;2.53;;;19.90;64.90;;;;;;5033797;28;20033;-85
2021/08/12 05:44:08;;;;;;;2.63;2.53;;;19.90;65.00;;;;;;5048928;28;20037;-84
2021/08/12 05:46:35;;;;;;;3.00;2.90;;;19.90;65.20;;;;;;5033007;28;20045;-84
2021/08/12 05:49:01;;;;;;;4.03;3.55;;;19.90;65.20;;;;;;5017058;28;20021;-84
2021/08/12 05:51:27;;;;;;;2.95;2.78;;;20.00;65.20;;;;;;5032094;28;20040;-84
2021/08/12 05:53:53;;;;;;;2.95;2.80;;;20.00;65.10;;;;;;5030259;28;20041;-84
2021/08/12 05:56:19;;;;;;;5.43;3.55;;;20.10;65.10;;;;;;5036619;28;20052;-84
2021/08/12 05:58:45;;;;;;;3.95;3.65;;;20.30;64.90;;;;;;5033160;28;20033;-86
2021/08/12 06:01:11;;;;;;;3.15;3.05;;;20.50;64.60;;;;;;5034169;28;20403;-84
2021/08/12 06:03:37;;;;;;;3.17;2.97;;;20.70;64.30;;;;;;5034493;28;20033;-85
2021/08/12 06:06:03;;;;;;;3.30;3.10;;;20.80;63.90;;;;;;5030313;28;20034;-84
2021/08/12 06:08:29;;;;;;;4.45;3.53;;;20.90;63.80;;;;;;5046566;28;20033;-84
2021/08/12 06:10:55;;;;;;;4.10;3.90;;;21.00;63.70;;;;;;5034673;28;20041;-84
2021/08/12 06:13:21;;;;;;;3.70;3.50;;;21.10;63.70;;;;;;5034125;28;20045;-84
2021/08/12 06:15:48;;;;;;;3.67;3.38;;;21.10;63.70;;;;;;5015827;28;20513;-85
2021/08/12 06:18:14;;;;;;;3.90;3.63;;;21.20;63.70;;;;;;5031363;28;20053;-85
2021/08/12 06:20:41;;;;;;;3.97;3.78;;;21.30;63.50;;;;;;5036837;28;20046;-85
2021/08/12 06:23:07;;;;;;;3.90;3.70;;;21.50;63.30;;;;;;5035921;28;20049;-85
2021/08/12 06:25:34;;;;;;;4.10;3.90;;;21.60;63.10;;;;;;5038329;28;20056;-85
2021/08/12 06:28:00;;;;;;;4.30;4.00;;;21.70;62.90;;;;;;5037937;28;20018;-84
2021/08/12 06:30:26;;;;;;;4.53;4.32;;;21.70;62.90;;;;;;5033889;28;20033;-85
2021/08/12 06:32:52;;;;;;;4.10;3.90;;;21.80;63.00;;;;;;5034709;28;20049;-84
2021/08/12 06:35:19;;;;;;;4.03;3.83;;;21.80;62.80;;;;;;5038896;28;20036;-85
2021/08/12 06:37:49;;;;;;;4.45;4.25;;;21.90;62.70;;;;;;5036841;28;20033;-84
2021/08/12 06:40:16;;;;;;;4.47;4.28;;;21.90;62.70;;;;;;5036703;28;20036;-83
2021/08/12 06:42:42;;;;;;;4.35;4.15;;;22.00;62.60;;;;;;5036427;28;20036;-84
2021/08/12 06:45:09;;;;;;;4.78;4.47;;;22.10;62.50;;;;;;5030933;28;20034;-85
2021/08/12 06:47:36;;;;;;;4.90;4.57;;;22.20;62.30;;;;;;5038380;28;20046;-83
2021/08/12 06:50:06;;;;;;;4.60;4.30;;;22.30;62.10;;;;;;5035429;28;20044;-84
2021/08/12 06:52:32;;;;;;;5.32;5.03;;;22.50;61.80;;;;;;5037143;28;20391;-85
2021/08/12 06:54:58;;;;;;;4.72;4.43;;;22.60;61.70;;;;;;5037900;28;20466;-85
2021/08/12 06:57:24;;;;;;;4.80;4.50;;;22.70;61.50;;;;;;5034035;28;20428;-84
2021/08/12 06:59:50;;;;;;;4.45;4.05;;;22.90;61.30;;;;;;5033142;28;20037;-84
2021/08/12 07:02:16;;;;;;;4.75;4.45;;;23.00;61.10;;;;;;5037884;28;20045;-87
2021/08/12 07:04:42;;;;;;;4.32;4.13;;;23.00;60.90;;;;;;5037468;28;20422;-85
2021/08/12 07:07:08;;;;;;;5.05;4.85;;;23.10;60.90;;;;;;5037307;28;20034;-85
2021/08/12 07:09:34;;;;;;;5.32;5.00;;;23.20;60.80;;;;;;5035847;28;20040;-85
2021/08/12 07:12:00;;;;;;;5.28;4.95;;;23.30;60.80;;;;;;5015138;28;20048;-85
2021/08/12 07:14:27;;;;;;;5.07;4.70;;;23.30;60.60;;;;;;5038279;28;20025;-85
2021/08/12 07:16:53;;;;;;;4.90;4.70;;;23.40;60.40;;;;;;5035620;28;20037;-84
2021/08/12 07:19:19;;;;;;;4.63;4.43;;;23.50;60.30;;;;;;5019250;28;20041;-85
2021/08/12 07:21:45;;;;;;;4.03;3.83;;;23.60;60.20;;;;;;5037067;28;20115;-85
2021/08/12 07:24:11;;;;;;;4.78;4.57;;;23.60;60.10;;;;;;5032315;28;20045;-85
2021/08/12 07:26:37;;;;;;;5.13;4.82;;;23.60;60.10;;;;;;5037461;28;20037;-85
2021/08/12 07:29:03;;;;;;;4.72;4.53;;;23.60;60.10;;;;;;5037635;28;20052;-85
2021/08/12 07:31:29;;;;;;;5.80;5.40;;;23.70;60.00;;;;;;5034933;28;20037;-85
2021/08/12 07:33:55;;;;;;;4.10;3.90;;;23.90;59.80;;;;;;5019232;28;20052;-85
2021/08/12 07:36:22;;;;;;;7.25;5.20;;;24.00;59.60;;;;;;5017391;28;20033;-85
2021/08/12 07:38:48;;;;;;;4.80;4.60;;;24.10;59.50;;;;;;5034518;28;20026;-85
2021/08/12 07:41:14;;;;;;;4.45;4.25;;;24.20;59.40;;;;;;5036295;28;20048;-85
2021/08/12 07:43:40;;;;;;;5.10;4.90;;;24.30;59.30;;;;;;5035510;28;20037;-85
2021/08/12 07:46:06;;;;;;;5.82;5.35;;;24.30;59.10;;;;;;5036211;28;20041;-85
2021/08/12 07:48:32;;;;;;;5.15;4.85;;;24.40;59.10;;;;;;5033839;28;20039;-85
2021/08/12 07:50:58;;;;;;;5.32;5.03;;;24.50;59.10;;;;;;5030919;28;20030;-88
2021/08/12 07:53:25;;;;;;;5.38;5.07;;;24.60;59.00;;;;;;5037867;28;20037;-84
2021/08/12 07:55:51;;;;;;;6.20;5.90;;;24.70;58.80;;;;;;5035078;28;20041;-85
2021/08/12 07:58:17;;;;;;;6.10;5.80;;;24.80;58.60;;;;;;5036399;28;20037;-86
2021/08/12 08:00:43;;;;;;;7.13;6.82;;;25.00;58.50;;;;;;5036060;28;20508;-85
2021/08/12 08:03:09;;;;;;;6.85;6.55;;;25.20;58.20;;;;;;5030161;28;20038;-85
2021/08/12 08:05:35;;;;;;;7.28;6.97;;;25.30;58.00;;;;;;5036822;28;20045;-86
2021/08/12 08:08:01;;;;;;;7.82;7.47;;;25.50;57.80;;;;;;5036811;28;20034;-85
2021/08/12 08:10:27;;;;;;;7.57;7.25;;;25.80;57.60;;;;;;5035786;28;20029;-85
2021/08/12 08:12:54;;;;;;;7.07;6.78;;;26.10;57.20;;;;;;5032124;28;20548;-85
2021/08/12 08:15:20;;;;;;;8.50;8.10;;;26.30;56.80;;;;;;5032290;28;20030;-85
2021/08/12 08:17:46;;;;;;;8.48;8.07;;;26.50;56.80;;;;;;5033630;28;20037;-86
2021/08/12 08:20:13;;;;;;;11.63;11.07;;;26.70;56.50;;;;;;5051062;28;20391;-84
2021/08/12 08:22:39;;;;;;;11.85;11.25;;;26.80;56.30;;;;;;5034982;28;20044;-85
2021/08/12 08:25:06;;;;;;;10.00;9.40;;;27.00;56.30;;;;;;5035770;28;20033;-86
2021/08/12 08:27:32;;;;;;;10.63;10.13;;;27.20;56.00;;;;;;5016652;28;20028;-85
2021/08/12 08:29:58;;;;;;;9.48;8.90;;;27.50;55.70;;;;;;5030734;28;20407;-86
2021/08/12 08:32:25;;;;;;;9.68;9.18;;;27.80;55.40;;;;;;5035436;28;20049;-85
2021/08/12 08:34:52;;;;;;;9.18;8.77;;;27.90;55.30;;;;;;5017769;28;20048;-85
2021/08/12 08:37:18;;;;;;;9.50;9.00;;;27.90;55.20;;;;;;5033752;28;20041;-85
2021/08/12 08:39:45;;;;;;;9.13;8.63;;;28.00;55.10;;;;;;5035013;28;20043;-85
2021/08/12 08:42:12;;;;;;;9.75;9.05;;;28.10;55.00;;;;;;5030684;28;20025;-85
2021/08/12 08:44:40;;;;;;;9.63;9.15;;;28.20;54.80;;;;;;5047172;28;20068;-85
2021/08/12 08:47:09;;;;;;;10.43;9.93;;;28.20;54.90;;;;;;5044221;28;20029;-85
2021/08/12 08:49:41;;;;;;;11.05;10.45;;;28.30;54.90;;;;;;5038720;28;20025;-85
2021/08/12 08:52:10;;;;;;;11.95;11.32;;;28.50;54.60;;;;;;5034345;28;20026;-85
2021/08/12 08:54:40;;;;;;;9.40;8.90;;;28.70;54.40;;;;;;5033240;28;20040;-86
2021/08/12 08:57:07;;;;;;;10.65;9.85;;;29.00;54.10;;;;;;5030165;28;20489;-85
2021/08/12 08:59:36;;;;;;;9.68;9.18;;;29.10;54.00;;;;;;5018721;28;20033;-86
2021/08/12 09:02:03;;;;;;;10.70;10.20;;;29.10;53.80;;;;;;5034117;28;20041;-85
2021/08/12 09:04:29;;;;;;;10.93;10.43;;;29.10;54.00;;;;;;5017751;28;20030;-86
2021/08/12 09:06:55;;;;;;;10.93;10.35;;;29.20;53.90;;;;;;5036564;28;20040;-86
2021/08/12 09:09:21;;;;;;;11.65;11.05;;;29.40;53.60;;;;;;5045115;28;20029;-85
2021/08/12 09:11:47;;;;;;;11.00;10.50;;;29.50;53.50;;;;;;5015241;28;20489;-84
2021/08/12 09:14:31;;;;;;;10.65;10.15;;;29.60;53.30;;;;;;5037084;28;20100;-87
2021/08/12 09:16:58;;;;;;;11.23;10.73;;;29.40;53.50;;;;;;5017214;28;20087;-86
2021/08/12 09:19:24;;;;;;;11.30;10.70;;;29.30;53.60;;;;;;5034038;28;20034;-85
2021/08/12 09:21:54;;;;;;;11.43;10.93;;;29.20;53.70;;;;;;5034920;28;20030;-86
2021/08/12 09:24:20;;;;;;;10.20;9.65;;;29.30;53.60;;;;;;5016582;28;20029;-86
2021/08/12 09:26:46;;;;;;;9.57;9.18;;;29.40;53.60;;;;;;5033029;28;20037;-85
2021/08/12 09:29:27;;;;;;;8.90;8.40;;;29.50;53.50;;;;;;5049920;28;20033;-86
2021/08/12 09:31:54;;;;;;;;;;;29.70;53.20;;;;;;5032208;28;20052;-86
2021/08/12 09:34:20;;;;;;;10.05;9.55;;;29.90;53.00;;;;;;5033211;28;19924;-87
2021/08/12 09:36:46;;;;;;;10.15;9.65;;;30.20;52.60;;;;;;5032167;28;20028;-88
2021/08/12 09:39:14;;;;;;;10.82;10.32;;;30.50;52.30;;;;;;5030104;28;20034;-86
2021/08/12 09:41:41;;;;;;;10.43;9.80;;;30.60;52.00;;;;;;5016430;28;20033;-86
2021/08/12 09:44:42;;;;;;;10.40;9.90;;;30.50;51.90;;;;;;5036529;28;20499;-86
2021/08/12 09:47:09;;;;;;;10.68;10.18;;;30.40;52.00;;;;;;5034981;28;20045;-86
2021/08/12 09:49:39;;;;;;;9.25;8.77;;;30.40;52.20;;;;;;5033499;28;20048;-86
2021/08/12 09:52:39;;;;;;;9.25;8.75;;;30.30;52.10;;;;;;5034466;28;20478;-86
2021/08/12 09:55:10;;;;;;;9.45;8.95;;;30.40;52.00;;;;;;5037206;28;20049;-86
2021/08/12 09:58:00;;;;;;;9.57;9.07;;;30.40;52.00;;;;;;5038686;28;20393;-86
2021/08/12 10:00:31;;;;;;;11.13;10.63;;;30.50;51.90;;;;;;5017234;28;20033;-86
2021/08/12 10:02:58;;;;;;;10.75;10.25;;;30.80;51.60;;;;;;5017376;28;20033;-86
2021/08/12 10:05:24;;;;;;;10.25;9.75;;;31.20;51.20;;;;;;5072408;28;20025;-87
2021/08/12 10:07:54;;;;;;;10.95;10.45;;;31.60;50.80;;;;;;5037478;28;20042;-86
2021/08/12 10:10:22;;;;;;;8.82;8.43;;;31.90;50.30;;;;;;5021124;28;20030;-88
2021/08/12 10:12:53;;;;;;;8.70;8.30;;;32.10;49.90;;;;;;5019646;28;20041;-86
2021/08/12 10:15:27;;;;;;;9.48;8.85;;;31.90;49.90;;;;;;5035558;28;20037;-87
2021/08/12 10:17:55;;;;;;;8.57;8.18;;;31.70;50.10;;;;;;5033927;28;20033;-87
2021/08/12 10:20:23;;;;;;;9.85;9.15;;;31.60;50.30;;;;;;5038730;28;20030;-87
2021/08/12 10:22:52;;;;;;;9.93;9.32;;;31.60;50.20;;;;;;5038393;28;20030;-86
2021/08/12 10:25:18;;;;;;;9.68;9.18;;;31.70;50.10;;;;;;5020659;28;20044;-86
2021/08/12 10:27:46;;;;;;;9.40;8.90;;;31.80;50.00;;;;;;5038142;28;20040;-88
2021/08/12 10:30:12;;;;;;;9.25;8.85;;;32.00;49.70;;;;;;5034671;28;20045;-86
2021/08/12 10:32:43;;;;;;;9.82;9.18;;;32.30;49.50;;;;;;5036098;28;20053;-87
2021/08/12 10:35:09;;;;;;;;;;;32.30;49.00;;;;;;5054109;28;20041;-86
2021/08/12 10:37:35;;;;;;;7.85;7.45;;;32.20;49.00;;;;;;5036805;28;19905;-87
2021/08/12 10:40:01;;;;;;;9.10;8.60;;;32.20;49.60;;;;;;5035409;28;20021;-86
2021/08/12 10:42:27;;;;;;;8.45;7.95;;;32.00;49.00;;;;;;5035610;28;20462;-86
2021/08/12 10:44:53;;;;;;;8.02;7.63;;;32.00;49.00;;;;;;5033470;28;20060;-86
2021/08/12 10:47:39;;;;;;;7.47;7.07;;;32.00;48.90;;;;;;5039318;28;20030;-86
2021/08/12 10:50:26;;;;;;;8.35;7.90;;;32.00;48.70;;;;;;5037077;28;20064;-88
2021/08/12 10:53:04;;;;;;;7.10;6.80;;;32.20;48.50;;;;;;5037805;28;20033;-86
2021/08/12 10:55:31;;;;;;;9.07;8.57;;;32.40;48.20;;;;;;5037661;28;20478;-86
2021/08/12 10:58:22;;;;;;;8.10;7.70;;;32.60;48.10;;;;;;5037723;28;20060;-87
2021/08/12 11:00:51;;;;;;;8.93;8.45;;;32.80;47.80;;;;;;5036888;28;20025;-86
2021/08/12 11:03:33;;;;;;;7.40;6.97;;;32.70;47.60;;;;;;5033384;28;20037;-86
2021/08/12 11:06:11;;;;;;;8.10;7.70;;;32.60;47.60;;;;;;5032663;28;20532;-87
2021/08/12 11:08:50;;;;;;;8.18;7.78;;;32.60;47.60;;;;;;5047271;28;20040;-86
2021/08/12 11:11:16;;;;;;;7.30;6.90;;;32.40;47.60;;;;;;5037830;28;20037;-87
2021/08/12 11:13:42;;;;;;;8.27;7.72;;;32.20;47.80;;;;;;5035941;28;20044;-86
2021/08/12 11:16:08;;;;;;;7.63;6.93;;;32.10;48.00;;;;;;5018327;28;20032;-88
2021/08/12 11:19:01;;;;;;;7.85;7.45;;;32.00;47.90;;;;;;5035697;28;20446;-87
2021/08/12 11:21:30;;;;;;;7.57;7.18;;;31.80;48.10;;;;;;5031978;28;20029;-86
2021/08/12 11:24:00;;;;;;;8.05;7.65;;;31.80;48.20;;;;;;5033133;28;20511;-87
2021/08/12 11:26:46;;;;;;;7.95;7.55;;;32.00;48.10;;;;;;5039160;28;20041;-86
2021/08/12 11:29:27;;;;;;;8.70;8.30;;;32.30;47.60;;;;;;5037399;28;20042;-86
2021/08/12 11:32:05;;;;;;;7.78;7.28;;;32.50;47.30;;;;;;5036537;28;20501;-86
2021/08/12 11:34:46;;;;;;;8.68;8.07;;;32.70;47.10;;;;;;5036462;28;20065;-86
2021/08/12 11:37:19;;;;;;;8.73;8.20;;;32.90;46.80;;;;;;5036941;28;20030;-86
2021/08/12 11:39:57;;;;;;;8.77;8.27;;;33.10;46.80;;;;;;5035706;28;20025;-85
2021/08/12 11:42:43;;;;;;;9.45;9.05;;;33.20;46.80;;;;;;5032449;28;20022;-87
2021/08/12 11:45:13;;;;;;;10.50;9.80;;;33.30;46.70;;;;;;5017520;28;20048;-87
2021/08/12 11:47:42;;;;;;;8.70;8.30;;;33.30;46.40;;;;;;5035165;28;20024;-86
2021/08/12 11:50:10;;;;;;;7.53;7.13;;;33.10;46.60;;;;;;5036555;28;20478;-86
2021/08/12 11:52:37;;;;;;;7.63;7.22;;;32.90;46.80;;;;;;5035368;28;20055;-88
2021/08/12 11:55:19;;;;;;;7.10;6.70;;;32.80;47.00;;;;;;5017646;28;20029;-86
2021/08/12 11:57:47;;;;;;;8.05;7.65;;;32.70;47.00;;;;;;5036499;28;20028;-86
2021/08/12 12:00:15;;;;;;;8.02;7.53;;;32.80;47.00;;;;;;5032955;28;20045;-85
2021/08/12 12:02:54;;;;;;;7.78;7.38;;;32.80;47.00;;;;;;5035830;28;20470;-86
2021/08/12 12:05:22;;;;;;;8.98;8.57;;;32.80;46.90;;;;;;5051666;28;20370;-86
2021/08/12 12:07:56;;;;;;;8.52;8.05;;;32.90;46.80;;;;;;5035049;28;20029;-86
2021/08/12 12:10:26;;;;;;;7.85;7.45;;;33.00;46.60;;;;;;5019662;28;20029;-86
2021/08/12 12:12:53;;;;;;;9.70;9.23;;;33.20;46.40;;;;;;5035089;28;20405;-86
2021/08/12 12:15:33;;;;;;;11.70;11.00;;;33.40;46.20;;;;;;5015315;28;20045;-86
2021/08/12 12:17:59;;;;;;;9.75;9.20;;;33.60;45.90;;;;;;5031890;28;20025;-87
2021/08/12 12:20:26;;;;;;;9.05;8.65;;;33.70;45.70;;;;;;5036903;28;20033;-85
2021/08/12 12:23:03;;;;;;;9.05;8.63;;;33.70;45.80;;;;;;5034804;28;20029;-88
2021/08/12 12:25:30;;;;;;;9.05;8.65;;;33.70;45.70;;;;;;5017985;28;20052;-86
2021/08/12 12:27:57;;;;;;;8.60;8.10;;;33.60;45.80;;;;;;5035283;28;21550;-85
2021/08/12 12:30:24;;;;;;;9.23;8.82;;;33.50;45.90;;;;;;5032245;28;20040;-86
2021/08/12 12:32:57;;;;;;;8.77;8.38;;;33.50;46.00;;;;;;5033841;28;20525;-84
2021/08/12 12:35:23;;;;;;;8.10;7.70;;;33.50;45.90;;;;;;5052669;28;20036;-86
2021/08/12 12:37:49;;;;;;;8.10;7.70;;;33.50;45.80;;;;;;5035793;28;20033;-86
2021/08/12 12:40:17;;;;;;;8.20;7.80;;;33.60;45.80;;;;;;5018253;28;20033;-86
2021/08/12 12:42:43;;;;;;;9.05;8.55;;;33.50;45.70;;;;;;5035402;28;20033;-86
2021/08/12 12:45:10;;;;;;;7.68;7.28;;;33.50;45.80;;;;;;5013687;28;20060;-85
2021/08/12 12:47:37;;;;;;;8.07;7.68;;;33.50;45.80;;;;;;5018225;28;20034;-86
2021/08/12 12:50:32;;;;;;;8.48;7.65;;;33.50;45.80;;;;;;5034236;28;20033;-86
2021/08/12 12:53:03;;;;;;;8.00;7.60;;;33.50;45.70;;;;;;5030562;28;20050;-81